Pagrindinis puslapis
METAR-TAF:

METAR-TAF

Oro uostai :

Ministro Pistarini tarptautinis oro uostas

Ezeiza, Argentina

platuma: 34-49S, ilguma: 058-32W, Aukštis: 20 m

Dabartinis oras

Ataskaita buvo paskelbta 49 minutes, ne 15:00 UTC
Vėjas 8 kt iš Šiaurės Rytų, svyruoja nuo Šiaurės ir Rytų
Temperatūra 29°C
Drėgmė 52%
Slėgis 1020 hPa
Matomumas 10 km arba daugiau
nėra debesų žemiau 1500 m ir nėra kamuolinių lietaus debesų

METAR: SAEZ 221500Z 05008KT 350V090 CAVOK 29/18 Q1020 NOSIG

Laikas: 12:49 (15:49 UTC)

Prognozė

Ataskaita buvo paskelbta 4 valandos ir 49 minutes, ne 11:00 UTC
Prognozė galioja nuo 22 metu 12 UTC su 23 metu 12 UTC
Vėjas 10 kt iš Šiaurės Rytų
Matomumas 10 km arba daugiau
nėra debesų žemiau 1500 m ir nėra kamuolinių lietaus debesų
Laikinai
nuo 22 metu 21 UTC su 23 metu 02 UTC
Vėjas 15 kt iš Rytų su gūsio iki 25 kt
Tapsmas
nuo 23 metu 05 UTC su 23 metu 07 UTC
Vėjas 12 kt iš Šiaurės/Šiaurės Rytų

TAF: SAEZ 221100Z 2212/2312 05010KT CAVOK TX33/2219Z TN22/2309Z TEMPO 2221/2302 09015G25KT BECMG 2305/2307 03012KT

Orai ataskaitas ir orų prognozės (METAR, TAF).

turimą stotys yra geltonos ir raudonos taškus žemėlapyje.

Perkelti pele per norėdami pamatyti stoties vardą.

Tada spustelėkite, norėdami matyti oro stebėjimo ir prognozės.

Norėdami pakeisti žemėlapį: spustelėkite ant žalios mygtukų su juodo kryžiaus žemyn,; žalią mygtuką su brūkšneliu, jei norite nutolinti; arba žalių rodyklių gretimoms žemėlapius.


METAR-TAF: